createdAt,value
2023-02-08T00:01:21.365Z,95.55
2023-02-08T00:03:49.427Z,95.62
2023-02-08T00:06:17.897Z,95.47
2023-02-08T00:08:46.277Z,95.34
2023-02-08T00:11:14.100Z,95.54
2023-02-08T00:13:42.747Z,95.52
2023-02-08T00:16:12.705Z,95.60
2023-02-08T00:18:41.618Z,95.60
2023-02-08T00:21:11.523Z,95.46
2023-02-08T00:23:39.429Z,95.56
2023-02-08T00:26:07.756Z,95.58
2023-02-08T00:28:36.195Z,95.68
2023-02-08T00:31:04.697Z,95.69
2023-02-08T00:33:32.804Z,95.67
2023-02-08T00:36:02.366Z,95.61
2023-02-08T00:38:31.867Z,95.59
2023-02-08T00:40:59.665Z,95.28
2023-02-08T00:43:27.552Z,95.36
2023-02-08T00:45:59.458Z,95.62
2023-02-08T00:48:28.522Z,95.68
2023-02-08T00:51:02.424Z,95.50
2023-02-08T00:53:30.621Z,95.68
2023-02-08T00:55:58.410Z,95.74
2023-02-08T00:58:27.650Z,95.65
2023-02-08T01:00:56.564Z,95.75
2023-02-08T01:03:24.804Z,95.81
2023-02-08T01:05:53.506Z,95.66
2023-02-08T01:08:22.029Z,95.64
2023-02-08T01:10:50.148Z,95.83
2023-02-08T01:13:17.921Z,95.71
2023-02-08T01:15:46.742Z,95.62
2023-02-08T01:18:14.565Z,95.63
2023-02-08T01:20:42.807Z,95.68
2023-02-08T01:23:10.562Z,95.73
2023-02-08T01:25:38.376Z,95.69
2023-02-08T01:28:06.560Z,95.79
2023-02-08T01:30:34.391Z,95.83
2023-02-08T01:33:02.198Z,95.94
2023-02-08T01:35:30.225Z,95.86
2023-02-08T01:37:58.548Z,96.08
2023-02-08T01:40:26.346Z,95.97
2023-02-08T01:42:54.055Z,95.92
2023-02-08T01:45:26.206Z,95.94
2023-02-08T01:48:01.092Z,95.90
2023-02-08T01:50:34.558Z,95.61
2023-02-08T01:53:04.121Z,95.63
2023-02-08T01:55:38.527Z,95.57
2023-02-08T01:58:09.754Z,95.52
2023-02-08T02:00:37.568Z,95.57
2023-02-08T02:03:06.734Z,95.92
2023-02-08T02:05:41.279Z,95.92
2023-02-08T02:08:11.004Z,95.62
2023-02-08T02:10:40.944Z,95.74
2023-02-08T02:13:16.533Z,95.72
2023-02-08T02:15:45.340Z,95.57
2023-02-08T02:18:24.530Z,95.57
2023-02-08T02:21:24.159Z,95.59
2023-02-08T02:23:58.059Z,95.56
2023-02-08T02:26:57.697Z,95.65
2023-02-08T02:29:39.054Z,95.68
2023-02-08T02:32:29.368Z,95.49
2023-02-08T02:35:08.112Z,95.64
2023-02-08T02:38:06.713Z,95.77
2023-02-08T02:40:50.410Z,95.77
2023-02-08T02:43:38.440Z,95.81
2023-02-08T02:46:25.443Z,95.72
2023-02-08T02:48:59.058Z,95.61
2023-02-08T02:51:44.477Z,95.71
2023-02-08T02:54:24.086Z,95.83
2023-02-08T02:56:59.940Z,95.68
2023-02-08T02:59:28.881Z,95.60
2023-02-08T03:01:57.752Z,95.68
2023-02-08T03:04:41.450Z,95.65
2023-02-08T03:07:38.302Z,95.73
2023-02-08T03:10:21.931Z,95.51
2023-02-08T03:13:20.473Z,95.62
2023-02-08T03:16:20.597Z,95.71
2023-02-08T03:19:10.230Z,95.74
2023-02-08T03:21:47.187Z,95.56
2023-02-08T03:24:38.809Z,95.54
2023-02-08T03:27:15.419Z,95.41
2023-02-08T03:30:02.503Z,95.55
2023-02-08T03:32:55.990Z,95.71
2023-02-08T03:35:45.850Z,95.64
2023-02-08T03:38:21.146Z,95.58
2023-02-08T03:40:53.591Z,95.40
2023-02-08T03:43:33.244Z,95.16
2023-02-08T03:46:21.116Z,95.15
2023-02-08T03:48:57.122Z,95.09
2023-02-08T03:51:28.381Z,95.18
2023-02-08T03:53:58.679Z,94.97
2023-02-08T03:56:48.338Z,94.80
2023-02-08T03:59:27.553Z,94.99
2023-02-08T04:01:59.963Z,94.99
2023-02-08T04:04:32.610Z,94.77
2023-02-08T04:07:00.510Z,94.85
2023-02-08T04:09:28.369Z,94.77
2023-02-08T04:11:56.295Z,95.01
2023-02-08T04:14:24.073Z,94.95
2023-02-08T04:16:52.051Z,94.91
2023-02-08T04:19:19.865Z,94.76
2023-02-08T04:21:47.635Z,94.81
2023-02-08T04:24:15.420Z,94.86
2023-02-08T04:26:43.232Z,94.68
2023-02-08T04:29:10.964Z,94.85
2023-02-08T04:31:38.890Z,94.83
2023-02-08T04:34:06.975Z,94.72
2023-02-08T04:36:34.803Z,94.69
2023-02-08T04:39:03.087Z,94.74
2023-02-08T04:41:30.856Z,94.82
2023-02-08T04:43:58.656Z,94.81
2023-02-08T04:46:26.468Z,94.82
2023-02-08T04:48:54.304Z,94.78
2023-02-08T04:51:22.104Z,94.79
2023-02-08T04:53:49.834Z,94.66
2023-02-08T04:56:17.611Z,94.44
2023-02-08T04:58:45.397Z,94.54
2023-02-08T05:01:13.354Z,94.09
2023-02-08T05:03:41.184Z,94.31
2023-02-08T05:06:08.998Z,94.40
2023-02-08T05:08:36.818Z,94.42
2023-02-08T05:11:04.738Z,94.13
2023-02-08T05:13:32.600Z,94.13
2023-02-08T05:16:00.436Z,94.37
2023-02-08T05:18:29.441Z,94.58
2023-02-08T05:21:01.246Z,94.74
2023-02-08T05:23:29.161Z,94.56
2023-02-08T05:25:56.927Z,94.71
2023-02-08T05:28:25.234Z,94.76
2023-02-08T05:30:52.985Z,94.72
2023-02-08T05:33:20.797Z,94.40
2023-02-08T05:35:48.603Z,94.50
2023-02-08T05:38:16.364Z,94.47
2023-02-08T05:40:44.051Z,94.38
2023-02-08T05:43:11.805Z,94.67
2023-02-08T05:45:39.566Z,94.71
2023-02-08T05:48:07.326Z,94.59
2023-02-08T05:50:35.148Z,94.50
2023-02-08T05:53:02.915Z,94.18
2023-02-08T05:55:30.661Z,94.25
2023-02-08T05:57:58.406Z,94.47
2023-02-08T06:00:26.216Z,94.31
2023-02-08T06:02:54.189Z,94.29
2023-02-08T06:05:22.043Z,94.34
2023-02-08T06:07:49.802Z,94.18
2023-02-08T06:10:17.716Z,94.25
2023-02-08T06:12:45.444Z,94.42
2023-02-08T06:15:13.499Z,94.42
2023-02-08T06:17:41.262Z,94.45
2023-02-08T06:20:10.112Z,94.12
2023-02-08T06:22:38.048Z,94.37
2023-02-08T06:25:06.448Z,93.99
2023-02-08T06:27:34.258Z,94.19
2023-02-08T06:30:02.388Z,94.21
2023-02-08T06:32:30.310Z,94.04
2023-02-08T06:34:58.284Z,94.08
2023-02-08T06:37:26.048Z,94.11
2023-02-08T06:39:53.824Z,94.04
2023-02-08T06:42:22.737Z,94.07
2023-02-08T06:44:55.103Z,93.93
2023-02-08T06:47:24.607Z,93.81
2023-02-08T06:49:53.131Z,93.92
2023-02-08T06:52:21.811Z,94.13
2023-02-08T06:54:49.612Z,93.92
2023-02-08T06:57:17.423Z,93.81
2023-02-08T06:59:45.483Z,93.81
2023-02-08T07:02:15.258Z,93.91
2023-02-08T07:04:43.920Z,93.96
2023-02-08T07:07:14.096Z,93.59
2023-02-08T07:09:42.598Z,93.77
2023-02-08T07:12:11.861Z,93.89
2023-02-08T07:14:42.119Z,93.90
2023-02-08T07:17:11.341Z,93.86
2023-02-08T07:19:40.121Z,93.92
2023-02-08T07:22:08.466Z,93.97
2023-02-08T07:24:41.210Z,93.67
2023-02-08T07:27:11.592Z,93.30
2023-02-08T07:29:40.053Z,93.29
2023-02-08T07:32:08.743Z,93.54
2023-02-08T07:34:38.131Z,93.74
2023-02-08T07:37:06.052Z,94.04
2023-02-08T07:39:34.071Z,93.83
2023-02-08T07:42:01.828Z,93.47
2023-02-08T07:44:30.977Z,93.05
2023-02-08T07:46:58.765Z,93.12
2023-02-08T07:49:26.516Z,92.89
2023-02-08T07:51:54.316Z,93.10
2023-02-08T07:54:22.069Z,93.06
2023-02-08T07:56:50.031Z,92.85
2023-02-08T07:59:17.895Z,93.23
2023-02-08T08:01:45.777Z,93.02
2023-02-08T08:04:14.048Z,93.53
2023-02-08T08:06:41.874Z,93.38
2023-02-08T08:09:09.698Z,93.01
2023-02-08T08:12:12.782Z,92.66
2023-02-08T08:14:40.503Z,92.94
2023-02-08T08:17:08.738Z,93.36
2023-02-08T08:19:36.518Z,93.41
2023-02-08T08:22:04.440Z,93.20
2023-02-08T08:24:35.520Z,93.05
2023-02-08T08:27:07.477Z,92.57
2023-02-08T08:29:37.114Z,92.48
2023-02-08T08:32:05.113Z,92.72
2023-02-08T08:34:32.861Z,92.65
2023-02-08T08:37:02.231Z,92.36
2023-02-08T08:39:30.053Z,92.26
2023-02-08T08:42:01.210Z,92.62
2023-02-08T08:44:28.947Z,92.71
2023-02-08T08:46:57.869Z,92.58
2023-02-08T08:49:27.061Z,92.75
2023-02-08T08:51:55.954Z,92.87
2023-02-08T08:54:24.090Z,93.09
2023-02-08T08:56:52.012Z,92.67
2023-02-08T08:59:19.857Z,92.53
2023-02-08T09:01:47.818Z,92.71
2023-02-08T09:04:15.804Z,92.59
2023-02-08T09:06:43.602Z,92.34
2023-02-08T09:09:11.802Z,92.49
2023-02-08T09:11:39.601Z,93.19
2023-02-08T09:14:07.783Z,92.55
2023-02-08T09:16:35.618Z,92.25
2023-02-08T09:19:08.542Z,92.22
2023-02-08T09:21:36.857Z,92.84
2023-02-08T09:24:04.837Z,92.35
2023-02-08T09:26:33.061Z,91.84
2023-02-08T09:29:01.014Z,92.08
2023-02-08T09:31:32.215Z,92.32
2023-02-08T09:34:01.051Z,92.16
2023-02-08T09:36:33.284Z,92.03
2023-02-08T09:39:07.381Z,92.28
2023-02-08T09:41:58.545Z,92.56
2023-02-08T09:44:40.433Z,92.53
2023-02-08T09:47:30.381Z,92.48
2023-02-08T09:50:10.082Z,92.36
2023-02-08T09:52:45.487Z,92.08
2023-02-08T09:55:36.738Z,92.43
2023-02-08T09:58:17.455Z,91.86
2023-02-08T10:00:48.074Z,91.69
2023-02-08T10:03:37.123Z,91.90
2023-02-08T10:06:07.739Z,91.95
2023-02-08T10:08:36.641Z,91.72
2023-02-08T10:11:27.707Z,91.67
2023-02-08T10:14:01.389Z,91.62
2023-02-08T10:17:01.452Z,91.61
2023-02-08T10:19:54.841Z,91.52
2023-02-08T10:22:35.390Z,91.49
2023-02-08T10:25:19.030Z,91.54
2023-02-08T10:28:06.435Z,91.68
2023-02-08T10:30:50.248Z,91.15
2023-02-08T10:33:20.532Z,91.08
2023-02-08T10:35:50.821Z,90.68
2023-02-08T10:38:44.121Z,91.21
2023-02-08T10:41:20.215Z,89.57
2023-02-08T10:44:20.203Z,90.16
2023-02-08T10:46:55.108Z,90.33
2023-02-08T10:49:39.950Z,90.54
2023-02-08T10:52:07.932Z,89.87
2023-02-08T10:54:35.661Z,90.09
2023-02-08T10:57:12.884Z,90.53
2023-02-08T11:00:03.831Z,89.01
2023-02-08T11:02:38.772Z,88.59
2023-02-08T11:05:15.882Z,89.90
2023-02-08T11:07:43.778Z,90.22
2023-02-08T11:10:27.696Z,90.17
2023-02-08T11:13:01.193Z,89.95
2023-02-08T11:15:45.248Z,90.06
2023-02-08T11:18:27.576Z,89.53
2023-02-08T11:20:58.712Z,89.30
2023-02-08T11:23:31.238Z,89.45
2023-02-08T11:26:15.331Z,89.50
2023-02-08T11:28:44.362Z,89.51
2023-02-08T11:31:20.641Z,90.42
2023-02-08T11:34:05.576Z,89.53
2023-02-08T11:36:35.561Z,89.84
2023-02-08T11:39:17.307Z,89.57
2023-02-08T11:41:47.706Z,89.30
2023-02-08T11:44:28.232Z,89.45
2023-02-08T11:47:00.351Z,88.92
2023-02-08T11:49:51.433Z,89.23
2023-02-08T11:52:35.494Z,88.91
2023-02-08T11:55:19.372Z,88.72
2023-02-08T11:58:18.983Z,88.34
2023-02-08T12:01:16.681Z,88.34
2023-02-08T12:03:47.846Z,88.97
2023-02-08T12:06:47.588Z,88.42
2023-02-08T12:09:21.233Z,88.28
2023-02-08T12:11:50.451Z,88.27
2023-02-08T12:14:22.322Z,88.18
2023-02-08T12:16:53.393Z,87.98
2023-02-08T12:19:43.232Z,88.36
2023-02-08T12:22:18.894Z,88.47
2023-02-08T12:24:46.637Z,88.78
2023-02-08T12:27:27.546Z,88.43
2023-02-08T12:30:29.530Z,87.54
2023-02-08T12:33:24.798Z,87.40
2023-02-08T12:36:17.032Z,86.51
2023-02-08T12:39:19.007Z,87.09
2023-02-08T12:41:56.285Z,86.93
2023-02-08T12:44:48.588Z,87.05
2023-02-08T12:48:03.073Z,86.59
2023-02-08T12:50:50.740Z,86.55
2023-02-08T12:53:31.145Z,86.41
2023-02-08T12:56:06.720Z,85.87
2023-02-08T12:58:45.622Z,86.89
2023-02-08T13:01:21.752Z,86.32
2023-02-08T13:04:27.479Z,86.72
2023-02-08T13:07:27.917Z,86.03
2023-02-08T13:10:04.457Z,86.08
2023-02-08T13:12:43.846Z,85.75
2023-02-08T13:15:44.970Z,85.55
2023-02-08T13:18:16.522Z,86.01
2023-02-08T13:21:03.080Z,85.39
2023-02-08T13:23:50.561Z,85.39
2023-02-08T13:26:27.917Z,85.27
2023-02-08T13:29:01.004Z,85.97
2023-02-08T13:31:41.909Z,85.72
2023-02-08T13:34:40.635Z,84.27
2023-02-08T13:37:27.934Z,84.48
2023-02-08T13:40:28.430Z,84.65
2023-02-08T13:43:09.096Z,85.09
2023-02-08T13:45:43.399Z,84.67
2023-02-08T13:48:14.819Z,84.73
2023-02-08T13:50:50.577Z,85.23
2023-02-08T13:53:35.355Z,85.26
2023-02-08T13:56:05.828Z,84.76
2023-02-08T13:58:50.339Z,84.47
2023-02-08T14:01:30.318Z,83.88
2023-02-08T14:04:14.145Z,84.35
2023-02-08T14:06:41.873Z,84.23
2023-02-08T14:09:32.274Z,84.49
2023-02-08T14:12:13.924Z,84.03
2023-02-08T14:14:41.759Z,84.59
2023-02-08T14:17:19.322Z,83.59
2023-02-08T14:19:57.867Z,84.12
2023-02-08T14:22:36.516Z,83.62
2023-02-08T14:25:24.706Z,83.75
2023-02-08T14:27:56.950Z,82.97
2023-02-08T14:30:31.360Z,84.12
2023-02-08T14:33:07.283Z,84.04
2023-02-08T14:35:39.213Z,83.86
2023-02-08T14:38:23.010Z,84.01
2023-02-08T14:40:53.484Z,83.44
2023-02-08T14:43:37.193Z,83.64
2023-02-08T14:46:36.992Z,83.52
2023-02-08T14:49:15.749Z,83.62
2023-02-08T14:51:59.075Z,83.45
2023-02-08T14:54:48.577Z,83.49
2023-02-08T14:57:28.845Z,82.79
2023-02-08T14:59:59.780Z,83.08
2023-02-08T15:02:32.559Z,83.49
2023-02-08T15:05:09.427Z,83.05
2023-02-08T15:07:53.515Z,83.53
2023-02-08T15:10:22.508Z,83.54
2023-02-08T15:12:54.004Z,83.83
2023-02-08T15:15:41.494Z,83.16
2023-02-08T15:18:23.108Z,83.17
2023-02-08T15:20:58.579Z,83.53
2023-02-08T15:23:26.458Z,83.48
2023-02-08T15:25:56.643Z,83.58
2023-02-08T15:28:28.897Z,83.84
2023-02-08T15:31:00.814Z,83.79
2023-02-08T15:33:28.852Z,83.92
2023-02-08T15:36:06.536Z,84.03
2023-02-08T15:38:38.677Z,84.26
2023-02-08T15:41:10.066Z,84.32
2023-02-08T15:43:39.592Z,84.30
2023-02-08T15:46:25.778Z,84.31
2023-02-08T15:48:56.685Z,84.54
2023-02-08T15:51:27.340Z,84.42
2023-02-08T15:53:56.720Z,84.49
2023-02-08T15:56:37.827Z,84.59
2023-02-08T15:59:16.143Z,84.46
2023-02-08T16:01:47.821Z,84.67
2023-02-08T16:04:16.053Z,84.53
2023-02-08T16:06:51.693Z,84.59
2023-02-08T16:09:25.033Z,84.70
2023-02-08T16:11:56.528Z,84.94
2023-02-08T16:14:28.871Z,84.98
2023-02-08T16:16:58.707Z,85.13
2023-02-08T16:19:31.866Z,85.06
2023-02-08T16:22:22.535Z,85.30
2023-02-08T16:24:50.877Z,85.45
2023-02-08T16:27:18.769Z,85.39
2023-02-08T16:29:47.640Z,85.41
2023-02-08T16:32:28.134Z,85.46
2023-02-08T16:34:56.333Z,85.61
2023-02-08T16:37:35.037Z,85.60
2023-02-08T16:40:30.748Z,85.63
2023-02-08T16:43:18.084Z,85.68
2023-02-08T16:45:46.549Z,85.57
2023-02-08T16:48:34.881Z,85.69
2023-02-08T16:51:05.455Z,85.60
2023-02-08T16:53:41.905Z,85.60
2023-02-08T16:56:11.452Z,85.79
2023-02-08T16:58:39.932Z,85.60
2023-02-08T17:01:12.327Z,85.64
2023-02-08T17:03:41.192Z,85.77
2023-02-08T17:06:21.907Z,85.66
2023-02-08T17:08:49.707Z,85.86
2023-02-08T17:11:17.572Z,85.64
2023-02-08T17:13:45.396Z,85.83
2023-02-08T17:16:19.301Z,85.83
2023-02-08T17:18:48.439Z,85.92
2023-02-08T17:21:17.192Z,85.85
2023-02-08T17:23:45.978Z,85.54
2023-02-08T17:26:13.722Z,85.66
2023-02-08T17:28:42.853Z,85.55
2023-02-08T17:31:14.687Z,85.54
2023-02-08T17:33:43.293Z,85.62
2023-02-08T17:36:13.505Z,85.65
2023-02-08T17:38:43.143Z,85.35
2023-02-08T17:41:19.980Z,85.21
2023-02-08T17:43:52.344Z,85.21
2023-02-08T17:46:26.132Z,85.17
2023-02-08T17:48:54.482Z,85.35
2023-02-08T17:51:24.250Z,85.35
2023-02-08T17:53:52.218Z,85.36
2023-02-08T17:56:22.922Z,85.14
2023-02-08T17:58:53.961Z,84.72
2023-02-08T18:01:26.890Z,84.76
2023-02-08T18:03:55.107Z,84.77
2023-02-08T18:06:25.990Z,84.50
2023-02-08T18:08:54.889Z,84.39
2023-02-08T18:11:23.860Z,84.28
2023-02-08T18:13:53.671Z,84.31
2023-02-08T18:16:24.090Z,84.02
2023-02-08T18:18:55.977Z,83.98
2023-02-08T18:21:32.728Z,83.96
2023-02-08T18:24:04.966Z,84.07
2023-02-08T18:26:34.421Z,83.98
2023-02-08T18:29:03.118Z,84.06
2023-02-08T18:31:31.745Z,83.82
2023-02-08T18:33:59.649Z,83.92
2023-02-08T18:36:27.424Z,83.82
2023-02-08T18:38:56.822Z,83.76
2023-02-08T18:41:27.759Z,83.77
2023-02-08T18:43:57.140Z,83.81
2023-02-08T18:46:27.105Z,83.94
2023-02-08T18:48:55.330Z,84.02
2023-02-08T18:51:24.492Z,84.23
2023-02-08T18:53:54.380Z,84.39
2023-02-08T18:56:25.079Z,84.00
2023-02-08T18:58:54.569Z,83.96
2023-02-08T19:01:24.276Z,84.15
2023-02-08T19:03:53.154Z,84.34
2023-02-08T19:06:24.870Z,84.57
2023-02-08T19:08:55.859Z,84.29
2023-02-08T19:11:24.834Z,84.01
2023-02-08T19:13:55.283Z,83.94
2023-02-08T19:16:24.724Z,83.60
2023-02-08T19:18:53.193Z,83.52
2023-02-08T19:21:21.032Z,83.62
2023-02-08T19:23:53.923Z,83.72
2023-02-08T19:26:26.325Z,83.82
2023-02-08T19:28:58.003Z,83.83
2023-02-08T19:31:28.082Z,83.73
2023-02-08T19:33:58.805Z,83.75
2023-02-08T19:36:29.623Z,83.87
2023-02-08T19:38:58.363Z,83.59
2023-02-08T19:41:31.078Z,83.65
2023-02-08T19:44:00.339Z,84.07
2023-02-08T19:46:28.358Z,84.09
2023-02-08T19:49:00.157Z,83.98
2023-02-08T19:51:32.021Z,83.82
2023-02-08T19:54:00.839Z,83.92
2023-02-08T19:56:33.853Z,84.03
2023-02-08T19:59:06.451Z,84.26
2023-02-08T20:01:35.444Z,84.13
2023-02-08T20:04:05.678Z,84.20
2023-02-08T20:06:36.933Z,84.26
2023-02-08T20:09:06.688Z,84.03
2023-02-08T20:11:45.046Z,83.94
2023-02-08T20:14:23.654Z,84.09
2023-02-08T20:16:51.500Z,84.07
2023-02-08T20:19:19.363Z,83.90
2023-02-08T20:21:47.261Z,83.90
2023-02-08T20:24:15.549Z,83.96
2023-02-08T20:26:45.550Z,83.88
2023-02-08T20:29:14.640Z,83.55
2023-02-08T20:31:44.927Z,83.64
2023-02-08T20:34:16.181Z,83.71
2023-02-08T20:37:05.375Z,83.63
2023-02-08T20:39:35.831Z,83.28
2023-02-08T20:42:04.203Z,83.46
2023-02-08T20:44:32.138Z,83.57
2023-02-08T20:47:00.129Z,83.30
2023-02-08T20:49:29.219Z,83.24
2023-02-08T20:51:56.991Z,83.59
2023-02-08T20:54:25.085Z,83.69
2023-02-08T20:56:53.396Z,83.89
2023-02-08T20:59:21.698Z,83.73
2023-02-08T21:01:49.685Z,83.92
2023-02-08T21:04:18.024Z,84.03
2023-02-08T21:06:46.270Z,83.99
2023-02-08T21:09:17.310Z,84.06
2023-02-08T21:11:47.246Z,84.11
2023-02-08T21:14:20.839Z,84.16
2023-02-08T21:16:51.753Z,84.22
2023-02-08T21:19:20.862Z,84.30
2023-02-08T21:21:53.975Z,84.34
2023-02-08T21:24:23.929Z,84.20
2023-02-08T21:26:53.788Z,84.26
2023-02-08T21:29:22.657Z,84.24
2023-02-08T21:31:53.554Z,84.07
2023-02-08T21:34:21.767Z,84.22
2023-02-08T21:36:49.622Z,84.05
2023-02-08T21:39:17.409Z,84.26
2023-02-08T21:41:45.305Z,84.18
2023-02-08T21:44:13.171Z,84.04
2023-02-08T21:46:41.005Z,84.22
2023-02-08T21:49:25.963Z,84.29
2023-02-08T21:52:09.662Z,84.05
2023-02-08T21:54:46.524Z,84.28
2023-02-08T21:57:18.942Z,84.53
2023-02-08T21:59:49.193Z,84.32
2023-02-08T22:02:25.586Z,84.26
2023-02-08T22:05:10.566Z,84.25
2023-02-08T22:07:54.148Z,84.63
2023-02-08T22:10:27.728Z,84.63
2023-02-08T22:12:57.203Z,84.66
2023-02-08T22:15:29.103Z,84.84
2023-02-08T22:18:00.289Z,84.63
2023-02-08T22:20:29.673Z,84.69
2023-02-08T22:22:57.779Z,85.02
2023-02-08T22:25:25.601Z,84.92
2023-02-08T22:27:53.454Z,85.10
2023-02-08T22:30:24.411Z,84.91
2023-02-08T22:32:53.378Z,84.77
2023-02-08T22:35:21.432Z,84.79
2023-02-08T22:37:49.273Z,84.63
2023-02-08T22:40:17.307Z,84.86
2023-02-08T22:42:45.181Z,84.88
2023-02-08T22:45:13.288Z,84.84
2023-02-08T22:47:41.155Z,85.00
2023-02-08T22:50:10.045Z,84.72
2023-02-08T22:52:37.919Z,84.75
2023-02-08T22:55:06.403Z,84.70
2023-02-08T22:57:35.871Z,84.86
2023-02-08T23:00:06.973Z,85.13
2023-02-08T23:02:34.956Z,85.20
2023-02-08T23:05:02.897Z,84.95
2023-02-08T23:07:30.693Z,85.09
2023-02-08T23:09:58.498Z,85.04
2023-02-08T23:12:26.360Z,85.23
2023-02-08T23:14:54.086Z,85.21
2023-02-08T23:17:21.948Z,85.38
2023-02-08T23:19:52.444Z,85.41
2023-02-08T23:22:20.330Z,85.50
2023-02-08T23:24:48.213Z,85.50
2023-02-08T23:27:16.024Z,85.55
2023-02-08T23:29:43.854Z,85.55
2023-02-08T23:32:11.705Z,85.75
2023-02-08T23:34:39.616Z,86.05
2023-02-08T23:37:07.472Z,85.87
2023-02-08T23:39:35.283Z,86.02
2023-02-08T23:42:03.142Z,86.03
2023-02-08T23:44:30.950Z,86.18
2023-02-08T23:46:58.878Z,86.22
2023-02-08T23:49:26.794Z,86.26
2023-02-08T23:51:55.186Z,86.35
2023-02-08T23:54:23.454Z,86.56
2023-02-08T23:56:52.015Z,86.57
2023-02-08T23:59:19.854Z,86.28
